Flight Track Log - Related Links

Times and Time Zones

All times are in EDT time to prevent confusion due to time zone crossing. See the QLK381 flight status page for this flight to view local times or setup timezone preferences in your user account.

Time Position Orientation Groundspeed Altitude Reporting Facility
EDT Latitude Longitude Course Direction KTS MPH feet Rate Location/Type
Sun 03:49:53 AM -25.3528 152.8348 195° South 170 196 3,200  Level Aus ATC (RADAR)
Sun 03:50:28 AM -25.3782 152.8274 195° South 150 173 4,300 1,516 Climbing Aus ATC (RADAR)
Sun 03:51:28 AM -25.4188 152.7960 215° Southwest 166 191 5,600 1,400 Climbing Aus ATC (RADAR)
Sun 03:52:28 AM -25.4594 152.7621 217° Southwest 181 208 7,100 1,740 Climbing Aus ATC (RADAR)
Sun 03:53:08 AM -25.4841 152.7410 218° Southwest 169 194 8,500 1,680 Climbing Aus ATC (RADAR)
Sun 03:53:43 AM -25.5037 152.7235 219° Southwest 157 181 9,200 1,200 Climbing Aus ATC (RADAR)
Sun 03:54:18 AM -25.5237 152.7080 215° Southwest 153 176 9,900 1,200 Climbing Aus ATC (RADAR)
Sun 03:54:53 AM -25.5515 152.7087 179° South 172 198 10,600 1,114 Climbing Aus ATC (RADAR)
Sun 03:55:28 AM -25.5788 152.7115 175° South 171 197 11,200 1,079 Climbing Aus ATC (RADAR)
Sun 03:56:22 AM -25.6238 152.7136 178° South 178 205 12,200 1,105 Climbing Aus ATC (RADAR)
Sun 03:57:22 AM -25.6725 152.7182 175° South 178 205 13,300 1,086 Climbing Aus ATC (RADAR)
Sun 03:58:07 AM -25.7112 152.7175 181° South 186 214 14,100 975 Climbing Aus ATC (RADAR)
Sun 03:58:42 AM -25.7407 152.7188 178° South 185 213 14,600 825 Climbing Aus ATC (RADAR)
Sun 03:59:27 AM -25.7791 152.7204 178° South 186 214 15,200 286 Climbing Aus ATC (RADAR)
Sun 04:00:27 AM -25.8341 152.7238 177° South 200 230 15,100 -50 Descending Aus ATC (RADAR)
Sun 04:01:27 AM -25.8896 152.7249 179° South 198 228 15,100  Level Aus ATC (RADAR)
Sun 04:02:27 AM -25.9436 152.7262 179° South 193 222 15,100  Level Aus ATC (RADAR)
Sun 04:03:07 AM -25.9790 152.7284 177° South 192 221 15,100 80 Level Aus ATC (RADAR)
Sun 04:03:42 AM -26.0101 152.7294 178° South 191 220 15,200  Climbing Aus ATC (RADAR)
Sun 04:04:17 AM -26.0410 152.7307 178° South 191 220 15,100  Descending Aus ATC (RADAR)
Sun 04:04:51 AM -26.0720 152.7320 178° South 191 220 15,200  Climbing Aus ATC (RADAR)
Sun 04:05:21 AM -26.0984 152.7334 177° South 190 219 15,100  Descending Aus ATC (RADAR)
Sun 04:06:21 AM -26.1522 152.7362 177° South 194 223 15,200 67 Climbing Aus ATC (RADAR)
Sun 04:06:51 AM -26.1797 152.7379 177° South 197 227 15,200  Level Aus ATC (RADAR)
Sun 04:07:51 AM -26.2354 152.7414 177° South 202 232 15,200 -60 Level Aus ATC (RADAR)
Sun 04:08:31 AM -26.2719 152.7347 189° South 196 226 15,100 -80 Descending Aus ATC (RADAR)
Sun 04:09:06 AM -26.3030 152.7260 194° South 197 227 15,100 86 Level Aus ATC (RADAR)
Sun 04:09:41 AM -26.3344 152.7191 191° South 197 227 15,200  Climbing Aus ATC (RADAR)
Sun 04:10:16 AM -26.3651 152.7107 194° South 195 224 15,100 -86 Descending Aus ATC (RADAR)
Sun 04:10:51 AM -26.3963 152.7036 192° South 196 226 15,100  Level Aus ATC (RADAR)
Sun 04:11:41 AM -26.4408 152.6918 193° South 197 227 15,100 55 Level Aus ATC (RADAR)
Sun 04:12:41 AM -26.4946 152.6783 193° South 200 230 15,200  Climbing Aus ATC (RADAR)
Sun 04:13:26 AM -26.5348 152.6677 193° South 198 228 15,100 -75 Descending Aus ATC (RADAR)
Sun 04:14:01 AM -26.5664 152.6590 194° South 199 229 15,100  Level Aus ATC (RADAR)
Sun 04:14:35 AM -26.5985 152.6493 195° South 203 234 15,100 92 Level Aus ATC (RADAR)
Sun 04:15:06 AM -26.6259 152.6424 193° South 201 231 15,200 92 Climbing Aus ATC (RADAR)
Sun 04:15:40 AM -26.6586 152.6449 176° South 209 241 15,200 -606 Level Aus ATC (RADAR)
Sun 04:16:45 AM -26.7053 152.7037 132° Southeast 231 266 14,200 -1,056 Descending Aus ATC (RADAR)
Sun 04:17:45 AM -26.7464 152.7634 128° Southeast 240 276 13,000 -1,260 Descending Aus ATC (RADAR)
Sun 04:18:25 AM -26.7900 152.7890 152° Southeast 264 304 12,100 -1,520 Descending Aus ATC (RADAR)
Sun 04:19:00 AM -26.8318 152.8120 154° Southeast 281 323 11,100 -1,629 Descending Aus ATC (RADAR)
Sun 04:19:35 AM -26.8724 152.8361 152° Southeast 278 320 10,200 -1,543 Descending Aus ATC (RADAR)
Sun 04:20:10 AM -26.9119 152.8597 152° Southeast 272 313 9,300 -1,543 Descending Aus ATC (RADAR)
Sun 04:20:45 AM -26.9511 152.8836 151° Southeast 271 312 8,400 -1,429 Descending Aus ATC (RADAR)
Sun 04:21:55 AM -27.0288 152.9330 150° Southeast 269 310 6,800 -1,385 Descending Aus ATC (RADAR)
Sun 04:22:55 AM -27.0975 152.9650 158° South 263 303 5,400 -1,320 Descending Aus ATC (RADAR)
Sun 04:23:35 AM -27.1445 152.9772 167° South 258 297 4,600 -1,216 Descending Aus ATC (RADAR)
Sun 04:24:09 AM -27.1848 152.9869 168° South 251 289 3,900 -1,043 Descending Aus ATC (RADAR)
Sun 04:24:44 AM -27.2232 152.9971 167° South 242 278 3,400 -943 Descending Aus ATC (RADAR)
Sun 04:25:19 AM -27.2603 153.0059 168° South 232 267 2,800 -943 Descending Aus ATC (RADAR)
Sun 04:25:54 AM -27.2948 153.0142 168° South 216 249 2,300 -568 Descending Aus ATC (RADAR)
Sun 04:26:54 AM -27.3454 153.0248 169° South 180 207 1,900 -200 Descending Aus ATC (RADAR)
Sun 04:27:54 AM -27.3849 153.0414 160° South 147 169 1,900 -180 Level Aus ATC (RADAR)
Sun 04:28:34 AM -27.4053 153.0583 144° Southeast 135 155 1,600 -640 Descending Aus ATC (RADAR)
Sun 04:29:09 AM -27.4237 153.0717 147° Southeast 131 151 1,100 -686 Descending Aus ATC (RADAR)
Sun 04:29:44 AM -27.4371 153.0883 132° Southeast 118 136 800 -369 Descending Aus ATC (RADAR)
Sun 04:30:14 AM -27.4305 153.1035 64° Northeast 110 127 700 -462 Descending Aus ATC (RADAR)
Sun 04:30:49 AM -27.4131 153.1128 25° Northeast 116 133 300 -686 Descending Aus ATC (RADAR)
Sun 04:31:34 AM -27.3925 153.1239 26° Northeast 109 125 -400 Descending Aus ATC (RADAR)

Login

Don't have an account? Register now (free) for customized features, flight alerts, and more!